Hovedside
METAR-TAF:

METAR-TAF

Lufthavner :

Sveg lufthavn

Sveg, Sverige

breddegrad: 62-02-52N, lengdegrad: 014-25-22E, høyde over havet: 359 m

Gjeldene værobservasjon

Denne rapporten ble laget for 27 minutter siden, klokken 16:50 UTC
Vind 6 kt fra Vest-sørvest, skiftende mellom Sør-sørvest og Vest
Temperatur 23°C
Luftfuktighet 36%
Trykk 1016 hPa
Sikt 10 km eller mer

METAR: ESND 241650Z AUTO 24006KT 200V280 9999 NCD 23/07 Q1016

Tid: 19:17 (17:17 UTC)


TAF: fraværende

Værobservasjoner og værvarsel for over 4000 flyplasser (METAR- og TAF-rapporter).

Tilgjengelige stasjoner er representert av de røde og gule prikkene på kartet.

Hold musepekeren over prikken for å se navnet på stasjonen.

Klikk så for å se værobservasjoner og -varsler.

For å forandre kartet kan du klikke på den grønne knappen med svart kryss for å zoome inn, på den grønne knappen med strek for å zoome ut, eller på de grønne pilene for å se tilstøtende kart.


METAR-TAF: